sensor_id;sensor_type;location;lat;lon;timestamp;temperature;humidity
72380;SHT30;60354;47.798;12.472;2024-01-25T00:01:28;8.29;83.10
72380;SHT30;60354;47.798;12.472;2024-01-25T00:03:53;8.31;82.07
72380;SHT30;60354;47.798;12.472;2024-01-25T00:06:19;8.31;81.80
72380;SHT30;60354;47.798;12.472;2024-01-25T00:08:46;8.38;80.42
72380;SHT30;60354;47.798;12.472;2024-01-25T00:11:12;8.29;81.22
72380;SHT30;60354;47.798;12.472;2024-01-25T00:13:37;8.26;80.88
72380;SHT30;60354;47.798;12.472;2024-01-25T00:16:04;8.25;80.93
72380;SHT30;60354;47.798;12.472;2024-01-25T00:18:29;8.24;80.94
72380;SHT30;60354;47.798;12.472;2024-01-25T00:20:55;8.22;81.38
72380;SHT30;60354;47.798;12.472;2024-01-25T00:23:21;8.22;80.47
72380;SHT30;60354;47.798;12.472;2024-01-25T00:25:46;8.20;81.21
72380;SHT30;60354;47.798;12.472;2024-01-25T00:28:12;8.15;81.23
72380;SHT30;60354;47.798;12.472;2024-01-25T00:30:39;8.14;81.56
72380;SHT30;60354;47.798;12.472;2024-01-25T00:33:04;8.14;81.63
72380;SHT30;60354;47.798;12.472;2024-01-25T00:35:30;8.14;82.54
72380;SHT30;60354;47.798;12.472;2024-01-25T00:37:56;8.12;82.85
72380;SHT30;60354;47.798;12.472;2024-01-25T00:40:22;8.06;83.05
72380;SHT30;60354;47.798;12.472;2024-01-25T00:42:47;8.11;82.42
72380;SHT30;60354;47.798;12.472;2024-01-25T00:45:20;8.09;83.10
72380;SHT30;60354;47.798;12.472;2024-01-25T00:47:46;8.09;83.77
72380;SHT30;60354;47.798;12.472;2024-01-25T00:50:12;8.06;83.43
72380;SHT30;60354;47.798;12.472;2024-01-25T00:52:38;8.05;83.63
72380;SHT30;60354;47.798;12.472;2024-01-25T00:55:04;8.06;84.64
72380;SHT30;60354;47.798;12.472;2024-01-25T00:57:30;8.06;83.85
72380;SHT30;60354;47.798;12.472;2024-01-25T00:59:56;8.08;84.43
72380;SHT30;60354;47.798;12.472;2024-01-25T01:02:22;8.11;83.98
72380;SHT30;60354;47.798;12.472;2024-01-25T01:04:48;8.01;84.13
72380;SHT30;60354;47.798;12.472;2024-01-25T01:07:14;8.15;82.42
72380;SHT30;60354;47.798;12.472;2024-01-25T01:09:40;8.26;81.42
72380;SHT30;60354;47.798;12.472;2024-01-25T01:12:06;8.20;82.20
72380;SHT30;60354;47.798;12.472;2024-01-25T01:14:32;8.22;81.74
72380;SHT30;60354;47.798;12.472;2024-01-25T01:16:57;8.29;81.05
72380;SHT30;60354;47.798;12.472;2024-01-25T01:19:23;8.31;81.10
72380;SHT30;60354;47.798;12.472;2024-01-25T01:21:48;8.28;81.49
72380;SHT30;60354;47.798;12.472;2024-01-25T01:24:13;8.25;81.30
72380;SHT30;60354;47.798;12.472;2024-01-25T01:26:39;8.29;80.50
72380;SHT30;60354;47.798;12.472;2024-01-25T01:29:07;8.29;81.55
72380;SHT30;60354;47.798;12.472;2024-01-25T01:31:33;8.25;81.28
72380;SHT30;60354;47.798;12.472;2024-01-25T01:33:59;8.25;81.64
72380;SHT30;60354;47.798;12.472;2024-01-25T01:36:24;8.20;82.33
72380;SHT30;60354;47.798;12.472;2024-01-25T01:38:50;8.15;81.59
72380;SHT30;60354;47.798;12.472;2024-01-25T01:41:15;8.18;81.87
72380;SHT30;60354;47.798;12.472;2024-01-25T01:43:41;8.20;82.23
72380;SHT30;60354;47.798;12.472;2024-01-25T01:46:12;8.06;83.47
72380;SHT30;60354;47.798;12.472;2024-01-25T01:48:41;7.98;83.50
72380;SHT30;60354;47.798;12.472;2024-01-25T01:51:06;8.01;82.39
72380;SHT30;60354;47.798;12.472;2024-01-25T01:53:33;7.98;83.58
72380;SHT30;60354;47.798;12.472;2024-01-25T01:55:59;7.94;83.73
72380;SHT30;60354;47.798;12.472;2024-01-25T01:58:25;7.87;83.45
72380;SHT30;60354;47.798;12.472;2024-01-25T02:00:53;7.85;84.19
72380;SHT30;60354;47.798;12.472;2024-01-25T02:03:19;7.83;84.28
72380;SHT30;60354;47.798;12.472;2024-01-25T02:05:45;7.78;84.56
72380;SHT30;60354;47.798;12.472;2024-01-25T02:08:10;7.78;85.01
72380;SHT30;60354;47.798;12.472;2024-01-25T02:10:36;7.75;85.11
72380;SHT30;60354;47.798;12.472;2024-01-25T02:13:01;7.77;85.86
72380;SHT30;60354;47.798;12.472;2024-01-25T02:15:27;7.73;84.77
72380;SHT30;60354;47.798;12.472;2024-01-25T02:17:52;7.74;85.28
72380;SHT30;60354;47.798;12.472;2024-01-25T02:20:18;7.78;85.57
72380;SHT30;60354;47.798;12.472;2024-01-25T02:22:44;7.73;85.34
72380;SHT30;60354;47.798;12.472;2024-01-25T02:25:09;7.71;86.08
72380;SHT30;60354;47.798;12.472;2024-01-25T02:27:35;7.73;86.50
72380;SHT30;60354;47.798;12.472;2024-01-25T02:30:05;7.69;87.09
72380;SHT30;60354;47.798;12.472;2024-01-25T02:32:32;7.62;87.31
72380;SHT30;60354;47.798;12.472;2024-01-25T02:34:57;7.62;87.50
72380;SHT30;60354;47.798;12.472;2024-01-25T02:37:23;7.59;87.09
72380;SHT30;60354;47.798;12.472;2024-01-25T02:39:48;7.57;86.28
72380;SHT30;60354;47.798;12.472;2024-01-25T02:42:14;7.59;86.98
72380;SHT30;60354;47.798;12.472;2024-01-25T02:44:42;7.53;87.62
72380;SHT30;60354;47.798;12.472;2024-01-25T02:47:08;7.59;86.65
72380;SHT30;60354;47.798;12.472;2024-01-25T02:49:33;7.53;88.02
72380;SHT30;60354;47.798;12.472;2024-01-25T02:51:59;7.57;87.79
72380;SHT30;60354;47.798;12.472;2024-01-25T02:54:24;7.50;88.34
72380;SHT30;60354;47.798;12.472;2024-01-25T02:56:50;7.56;86.79
72380;SHT30;60354;47.798;12.472;2024-01-25T02:59:15;7.50;87.94
72380;SHT30;60354;47.798;12.472;2024-01-25T03:01:41;7.49;87.73
72380;SHT30;60354;47.798;12.472;2024-01-25T03:04:07;7.39;88.52
72380;SHT30;60354;47.798;12.472;2024-01-25T03:06:33;7.39;88.51
72380;SHT30;60354;47.798;12.472;2024-01-25T03:08:58;7.43;86.41
72380;SHT30;60354;47.798;12.472;2024-01-25T03:11:24;7.34;87.74
72380;SHT30;60354;47.798;12.472;2024-01-25T03:13:49;7.39;87.42
72380;SHT30;60354;47.798;12.472;2024-01-25T03:16:15;7.36;87.68
72380;SHT30;60354;47.798;12.472;2024-01-25T03:18:40;7.29;87.48
72380;SHT30;60354;47.798;12.472;2024-01-25T03:21:06;7.33;87.12
72380;SHT30;60354;47.798;12.472;2024-01-25T03:23:31;7.34;86.97
72380;SHT30;60354;47.798;12.472;2024-01-25T03:25:57;7.27;87.92
72380;SHT30;60354;47.798;12.472;2024-01-25T03:28:22;7.24;87.98
72380;SHT30;60354;47.798;12.472;2024-01-25T03:30:48;7.20;88.17
72380;SHT30;60354;47.798;12.472;2024-01-25T03:33:13;7.24;87.51
72380;SHT30;60354;47.798;12.472;2024-01-25T03:35:38;7.23;87.70
72380;SHT30;60354;47.798;12.472;2024-01-25T03:38:04;7.24;87.91
72380;SHT30;60354;47.798;12.472;2024-01-25T03:40:30;7.18;87.73
72380;SHT30;60354;47.798;12.472;2024-01-25T03:42:55;7.16;88.06
72380;SHT30;60354;47.798;12.472;2024-01-25T03:45:20;7.15;87.81
72380;SHT30;60354;47.798;12.472;2024-01-25T03:47:46;7.19;87.65
72380;SHT30;60354;47.798;12.472;2024-01-25T03:50:12;7.15;88.52
72380;SHT30;60354;47.798;12.472;2024-01-25T03:52:37;7.08;89.30
72380;SHT30;60354;47.798;12.472;2024-01-25T03:55:03;6.95;89.42
72380;SHT30;60354;47.798;12.472;2024-01-25T03:57:29;6.96;89.62
72380;SHT30;60354;47.798;12.472;2024-01-25T03:59:55;6.87;90.18
72380;SHT30;60354;47.798;12.472;2024-01-25T04:02:20;6.88;90.20
72380;SHT30;60354;47.798;12.472;2024-01-25T04:04:46;6.85;90.31
72380;SHT30;60354;47.798;12.472;2024-01-25T04:07:11;6.87;89.95
72380;SHT30;60354;47.798;12.472;2024-01-25T04:09:37;6.85;90.26
72380;SHT30;60354;47.798;12.472;2024-01-25T04:12:03;6.84;90.09
72380;SHT30;60354;47.798;12.472;2024-01-25T04:14:28;6.88;90.18
72380;SHT30;60354;47.798;12.472;2024-01-25T04:16:54;6.89;89.79
72380;SHT30;60354;47.798;12.472;2024-01-25T04:19:19;6.89;89.51
72380;SHT30;60354;47.798;12.472;2024-01-25T04:21:45;6.96;88.91
72380;SHT30;60354;47.798;12.472;2024-01-25T04:24:10;6.91;89.33
72380;SHT30;60354;47.798;12.472;2024-01-25T04:26:35;6.91;89.07
72380;SHT30;60354;47.798;12.472;2024-01-25T04:29:01;6.92;89.17
72380;SHT30;60354;47.798;12.472;2024-01-25T04:31:26;6.85;89.93
72380;SHT30;60354;47.798;12.472;2024-01-25T04:33:52;6.87;89.61
72380;SHT30;60354;47.798;12.472;2024-01-25T04:36:17;6.70;90.42
72380;SHT30;60354;47.798;12.472;2024-01-25T04:38:43;6.67;89.82
72380;SHT30;60354;47.798;12.472;2024-01-25T04:41:08;6.71;90.17
72380;SHT30;60354;47.798;12.472;2024-01-25T04:43:35;6.70;89.59
72380;SHT30;60354;47.798;12.472;2024-01-25T04:46:02;6.75;89.66
72380;SHT30;60354;47.798;12.472;2024-01-25T04:48:28;6.89;87.71
72380;SHT30;60354;47.798;12.472;2024-01-25T04:50:56;7.05;87.78
72380;SHT30;60354;47.798;12.472;2024-01-25T04:53:21;7.03;87.95
72380;SHT30;60354;47.798;12.472;2024-01-25T04:55:47;7.11;86.73
72380;SHT30;60354;47.798;12.472;2024-01-25T04:58:12;7.12;87.28
72380;SHT30;60354;47.798;12.472;2024-01-25T05:00:38;7.15;87.24
72380;SHT30;60354;47.798;12.472;2024-01-25T05:03:05;7.15;87.37
72380;SHT30;60354;47.798;12.472;2024-01-25T05:05:30;7.11;87.98
72380;SHT30;60354;47.798;12.472;2024-01-25T05:07:56;7.11;87.49
72380;SHT30;60354;47.798;12.472;2024-01-25T05:10:21;7.19;86.85
72380;SHT30;60354;47.798;12.472;2024-01-25T05:12:48;7.27;86.90
72380;SHT30;60354;47.798;12.472;2024-01-25T05:15:14;7.29;86.25
72380;SHT30;60354;47.798;12.472;2024-01-25T05:17:39;7.27;87.06
72380;SHT30;60354;47.798;12.472;2024-01-25T05:20:06;7.27;86.83
72380;SHT30;60354;47.798;12.472;2024-01-25T05:22:31;7.33;86.33
72380;SHT30;60354;47.798;12.472;2024-01-25T05:24:57;7.30;85.99
72380;SHT30;60354;47.798;12.472;2024-01-25T05:27:22;7.36;85.44
72380;SHT30;60354;47.798;12.472;2024-01-25T05:29:48;7.32;86.39
72380;SHT30;60354;47.798;12.472;2024-01-25T05:32:14;7.30;86.53
72380;SHT30;60354;47.798;12.472;2024-01-25T05:34:39;7.29;86.29
72380;SHT30;60354;47.798;12.472;2024-01-25T05:37:05;7.30;86.47
72380;SHT30;60354;47.798;12.472;2024-01-25T05:39:30;7.22;87.06
72380;SHT30;60354;47.798;12.472;2024-01-25T05:41:56;7.22;87.62
72380;SHT30;60354;47.798;12.472;2024-01-25T05:44:21;7.24;87.15
72380;SHT30;60354;47.798;12.472;2024-01-25T05:46:47;7.23;87.23
72380;SHT30;60354;47.798;12.472;2024-01-25T05:49:12;7.19;88.08
72380;SHT30;60354;47.798;12.472;2024-01-25T05:51:38;7.22;88.36
72380;SHT30;60354;47.798;12.472;2024-01-25T05:54:03;7.19;88.50
72380;SHT30;60354;47.798;12.472;2024-01-25T05:56:29;7.15;89.19
72380;SHT30;60354;47.798;12.472;2024-01-25T05:58:54;7.13;89.33
72380;SHT30;60354;47.798;12.472;2024-01-25T06:01:20;7.09;90.01
72380;SHT30;60354;47.798;12.472;2024-01-25T06:03:45;7.08;90.36
72380;SHT30;60354;47.798;12.472;2024-01-25T06:06:11;7.06;90.49
72380;SHT30;60354;47.798;12.472;2024-01-25T06:08:36;7.01;90.63
72380;SHT30;60354;47.798;12.472;2024-01-25T06:11:02;7.01;90.59
72380;SHT30;60354;47.798;12.472;2024-01-25T06:13:27;6.99;90.81
72380;SHT30;60354;47.798;12.472;2024-01-25T06:15:53;7.01;90.85
72380;SHT30;60354;47.798;12.472;2024-01-25T06:18:18;7.06;89.59
72380;SHT30;60354;47.798;12.472;2024-01-25T06:20:44;7.08;90.06
72380;SHT30;60354;47.798;12.472;2024-01-25T06:23:09;7.05;89.80
72380;SHT30;60354;47.798;12.472;2024-01-25T06:25:35;7.08;88.97
72380;SHT30;60354;47.798;12.472;2024-01-25T06:28:01;7.08;88.33
72380;SHT30;60354;47.798;12.472;2024-01-25T06:30:28;7.13;87.08
72380;SHT30;60354;47.798;12.472;2024-01-25T06:32:53;7.18;87.10
72380;SHT30;60354;47.798;12.472;2024-01-25T06:35:19;7.16;86.94
72380;SHT30;60354;47.798;12.472;2024-01-25T06:37:44;7.16;87.22
72380;SHT30;60354;47.798;12.472;2024-01-25T06:40:10;7.15;87.61
72380;SHT30;60354;47.798;12.472;2024-01-25T06:42:36;7.15;88.02
72380;SHT30;60354;47.798;12.472;2024-01-25T06:45:01;7.12;88.51
72380;SHT30;60354;47.798;12.472;2024-01-25T06:47:27;7.02;89.39
72380;SHT30;60354;47.798;12.472;2024-01-25T06:49:52;6.98;90.01
72380;SHT30;60354;47.798;12.472;2024-01-25T06:52:18;6.93;90.10
72380;SHT30;60354;47.798;12.472;2024-01-25T06:54:44;6.87;90.67
72380;SHT30;60354;47.798;12.472;2024-01-25T06:57:10;6.84;91.02
72380;SHT30;60354;47.798;12.472;2024-01-25T06:59:35;6.85;91.03
72380;SHT30;60354;47.798;12.472;2024-01-25T07:02:01;6.80;91.85
72380;SHT30;60354;47.798;12.472;2024-01-25T07:04:28;6.80;92.27
72380;SHT30;60354;47.798;12.472;2024-01-25T07:06:54;6.80;92.33
72380;SHT30;60354;47.798;12.472;2024-01-25T07:09:20;6.81;92.35
72380;SHT30;60354;47.798;12.472;2024-01-25T07:11:45;6.81;92.09
72380;SHT30;60354;47.798;12.472;2024-01-25T07:14:11;6.82;92.09
72380;SHT30;60354;47.798;12.472;2024-01-25T07:16:37;6.82;92.04
72380;SHT30;60354;47.798;12.472;2024-01-25T07:19:03;6.85;91.72
72380;SHT30;60354;47.798;12.472;2024-01-25T07:21:28;6.85;92.14
72380;SHT30;60354;47.798;12.472;2024-01-25T07:23:59;6.89;92.28
72380;SHT30;60354;47.798;12.472;2024-01-25T07:26:24;6.98;92.41
72380;SHT30;60354;47.798;12.472;2024-01-25T07:28:50;6.92;92.45
72380;SHT30;60354;47.798;12.472;2024-01-25T07:31:19;6.93;92.51
72380;SHT30;60354;47.798;12.472;2024-01-25T07:33:45;6.99;92.57
72380;SHT30;60354;47.798;12.472;2024-01-25T07:36:11;6.95;92.89
72380;SHT30;60354;47.798;12.472;2024-01-25T07:38:36;6.93;90.73
72380;SHT30;60354;47.798;12.472;2024-01-25T07:41:02;6.96;91.53
72380;SHT30;60354;47.798;12.472;2024-01-25T07:43:27;6.92;91.62
72380;SHT30;60354;47.798;12.472;2024-01-25T07:45:53;6.93;91.60
72380;SHT30;60354;47.798;12.472;2024-01-25T07:48:18;6.89;89.91
72380;SHT30;60354;47.798;12.472;2024-01-25T07:50:44;6.88;90.32
72380;SHT30;60354;47.798;12.472;2024-01-25T07:53:09;6.88;90.28
72380;SHT30;60354;47.798;12.472;2024-01-25T07:55:36;6.93;89.93
72380;SHT30;60354;47.798;12.472;2024-01-25T07:58:01;6.98;89.93
72380;SHT30;60354;47.798;12.472;2024-01-25T08:00:27;7.02;89.82
72380;SHT30;60354;47.798;12.472;2024-01-25T08:02:52;6.98;89.72
72380;SHT30;60354;47.798;12.472;2024-01-25T08:05:18;7.02;88.57
72380;SHT30;60354;47.798;12.472;2024-01-25T08:07:45;6.96;88.91
72380;SHT30;60354;47.798;12.472;2024-01-25T08:10:10;7.01;88.49
72380;SHT30;60354;47.798;12.472;2024-01-25T08:12:35;6.99;88.85
72380;SHT30;60354;47.798;12.472;2024-01-25T08:15:01;6.89;88.85
72380;SHT30;60354;47.798;12.472;2024-01-25T08:17:26;6.89;88.45
72380;SHT30;60354;47.798;12.472;2024-01-25T08:19:52;6.93;88.82
72380;SHT30;60354;47.798;12.472;2024-01-25T08:22:18;7.01;88.99
72380;SHT30;60354;47.798;12.472;2024-01-25T08:24:43;7.05;89.25
72380;SHT30;60354;47.798;12.472;2024-01-25T08:27:09;7.08;88.86
72380;SHT30;60354;47.798;12.472;2024-01-25T08:29:34;7.08;88.89
72380;SHT30;60354;47.798;12.472;2024-01-25T08:32:02;7.16;88.25
72380;SHT30;60354;47.798;12.472;2024-01-25T08:34:28;7.18;88.51
72380;SHT30;60354;47.798;12.472;2024-01-25T08:36:54;7.19;88.52
72380;SHT30;60354;47.798;12.472;2024-01-25T08:39:19;7.19;88.23
72380;SHT30;60354;47.798;12.472;2024-01-25T08:41:45;7.23;87.92
72380;SHT30;60354;47.798;12.472;2024-01-25T08:44:12;7.18;87.03
72380;SHT30;60354;47.798;12.472;2024-01-25T08:46:37;7.13;86.70
72380;SHT30;60354;47.798;12.472;2024-01-25T08:49:04;7.16;85.31
72380;SHT30;60354;47.798;12.472;2024-01-25T08:51:34;7.36;84.55
72380;SHT30;60354;47.798;12.472;2024-01-25T08:53:59;7.47;84.64
72380;SHT30;60354;47.798;12.472;2024-01-25T08:56:24;7.57;83.96
72380;SHT30;60354;47.798;12.472;2024-01-25T08:58:50;7.70;83.94
72380;SHT30;60354;47.798;12.472;2024-01-25T09:01:17;7.60;80.53
72380;SHT30;60354;47.798;12.472;2024-01-25T09:03:43;7.62;81.00
72380;SHT30;60354;47.798;12.472;2024-01-25T09:06:08;7.53;80.67
72380;SHT30;60354;47.798;12.472;2024-01-25T09:08:34;7.53;81.84
72380;SHT30;60354;47.798;12.472;2024-01-25T09:11:00;7.53;81.81
72380;SHT30;60354;47.798;12.472;2024-01-25T09:13:25;7.49;82.39
72380;SHT30;60354;47.798;12.472;2024-01-25T09:15:51;7.53;83.02
72380;SHT30;60354;47.798;12.472;2024-01-25T09:18:16;7.50;82.95
72380;SHT30;60354;47.798;12.472;2024-01-25T09:20:42;7.43;82.34
72380;SHT30;60354;47.798;12.472;2024-01-25T09:23:13;7.53;82.21
72380;SHT30;60354;47.798;12.472;2024-01-25T09:25:39;7.52;81.41
72380;SHT30;60354;47.798;12.472;2024-01-25T09:28:06;7.60;81.23
72380;SHT30;60354;47.798;12.472;2024-01-25T09:30:32;7.57;81.86
72380;SHT30;60354;47.798;12.472;2024-01-25T09:32:57;7.54;81.44
72380;SHT30;60354;47.798;12.472;2024-01-25T09:35:23;7.54;81.13
72380;SHT30;60354;47.798;12.472;2024-01-25T09:37:48;7.52;81.51
72380;SHT30;60354;47.798;12.472;2024-01-25T09:40:18;7.57;81.44
72380;SHT30;60354;47.798;12.472;2024-01-25T09:42:47;7.59;81.84
72380;SHT30;60354;47.798;12.472;2024-01-25T09:45:17;7.52;82.29
72380;SHT30;60354;47.798;12.472;2024-01-25T09:47:43;7.52;81.13
72380;SHT30;60354;47.798;12.472;2024-01-25T09:50:09;7.50;80.92
72380;SHT30;60354;47.798;12.472;2024-01-25T09:52:35;7.56;80.31
72380;SHT30;60354;47.798;12.472;2024-01-25T09:55:01;7.56;81.54
72380;SHT30;60354;47.798;12.472;2024-01-25T09:57:28;7.57;81.53
72380;SHT30;60354;47.798;12.472;2024-01-25T09:59:54;7.56;82.13
72380;SHT30;60354;47.798;12.472;2024-01-25T10:02:22;7.56;81.84
72380;SHT30;60354;47.798;12.472;2024-01-25T10:04:51;7.62;82.06
72380;SHT30;60354;47.798;12.472;2024-01-25T10:07:35;7.69;81.99
72380;SHT30;60354;47.798;12.472;2024-01-25T10:10:01;7.71;82.05
72380;SHT30;60354;47.798;12.472;2024-01-25T10:12:26;7.71;81.35
72380;SHT30;60354;47.798;12.472;2024-01-25T10:14:52;7.67;82.34
72380;SHT30;60354;47.798;12.472;2024-01-25T10:17:17;7.59;82.25
72380;SHT30;60354;47.798;12.472;2024-01-25T10:19:46;7.63;82.83
72380;SHT30;60354;47.798;12.472;2024-01-25T10:22:12;7.64;82.20
72380;SHT30;60354;47.798;12.472;2024-01-25T10:24:38;7.70;83.18
72380;SHT30;60354;47.798;12.472;2024-01-25T10:27:04;7.84;82.14
72380;SHT30;60354;47.798;12.472;2024-01-25T10:29:29;8.02;81.32
72380;SHT30;60354;47.798;12.472;2024-01-25T10:31:55;8.02;81.42
72380;SHT30;60354;47.798;12.472;2024-01-25T10:34:22;7.94;81.73
72380;SHT30;60354;47.798;12.472;2024-01-25T10:36:49;7.99;82.15
72380;SHT30;60354;47.798;12.472;2024-01-25T10:39:15;8.01;81.91
72380;SHT30;60354;47.798;12.472;2024-01-25T10:41:42;8.04;82.49
72380;SHT30;60354;47.798;12.472;2024-01-25T10:44:10;7.97;81.86
72380;SHT30;60354;47.798;12.472;2024-01-25T10:46:36;7.97;82.14
72380;SHT30;60354;47.798;12.472;2024-01-25T10:49:02;7.90;82.09
72380;SHT30;60354;47.798;12.472;2024-01-25T10:51:28;7.85;82.98
72380;SHT30;60354;47.798;12.472;2024-01-25T10:53:54;7.91;82.82
72380;SHT30;60354;47.798;12.472;2024-01-25T10:56:20;7.94;82.78
72380;SHT30;60354;47.798;12.472;2024-01-25T10:58:46;7.95;83.56
72380;SHT30;60354;47.798;12.472;2024-01-25T11:01:11;7.93;82.98
72380;SHT30;60354;47.798;12.472;2024-01-25T11:03:39;7.90;83.35
72380;SHT30;60354;47.798;12.472;2024-01-25T11:06:11;7.87;83.69
72380;SHT30;60354;47.798;12.472;2024-01-25T11:08:37;7.93;82.58
72380;SHT30;60354;47.798;12.472;2024-01-25T11:11:08;7.93;83.96
72380;SHT30;60354;47.798;12.472;2024-01-25T11:13:35;8.01;83.75
72380;SHT30;60354;47.798;12.472;2024-01-25T11:16:17;8.01;83.30
72380;SHT30;60354;47.798;12.472;2024-01-25T11:18:56;8.05;83.07
72380;SHT30;60354;47.798;12.472;2024-01-25T11:21:44;8.06;82.96
72380;SHT30;60354;47.798;12.472;2024-01-25T11:24:24;8.21;82.49
72380;SHT30;60354;47.798;12.472;2024-01-25T11:26:53;8.21;82.13
72380;SHT30;60354;47.798;12.472;2024-01-25T11:29:21;8.28;80.18
72380;SHT30;60354;47.798;12.472;2024-01-25T11:31:49;8.36;78.33
72380;SHT30;60354;47.798;12.472;2024-01-25T11:34:14;8.39;78.77
72380;SHT30;60354;47.798;12.472;2024-01-25T11:36:41;8.46;79.96
72380;SHT30;60354;47.798;12.472;2024-01-25T11:39:09;8.52;75.75
72380;SHT30;60354;47.798;12.472;2024-01-25T11:41:35;8.69;75.60
72380;SHT30;60354;47.798;12.472;2024-01-25T11:44:04;8.70;76.75
72380;SHT30;60354;47.798;12.472;2024-01-25T11:46:32;8.87;77.42
72380;SHT30;60354;47.798;12.472;2024-01-25T11:48:58;9.01;76.68
72380;SHT30;60354;47.798;12.472;2024-01-25T11:51:24;9.07;76.04
72380;SHT30;60354;47.798;12.472;2024-01-25T11:53:50;9.21;73.38
72380;SHT30;60354;47.798;12.472;2024-01-25T11:56:20;9.32;74.76
72380;SHT30;60354;47.798;12.472;2024-01-25T11:58:47;9.28;71.96
72380;SHT30;60354;47.798;12.472;2024-01-25T12:01:13;9.23;72.91
72380;SHT30;60354;47.798;12.472;2024-01-25T12:03:39;9.30;73.75
72380;SHT30;60354;47.798;12.472;2024-01-25T12:06:05;9.30;71.60
72380;SHT30;60354;47.798;12.472;2024-01-25T12:08:34;9.28;71.87
72380;SHT30;60354;47.798;12.472;2024-01-25T12:11:10;9.30;73.13
72380;SHT30;60354;47.798;12.472;2024-01-25T12:13:41;9.31;71.14
72380;SHT30;60354;47.798;12.472;2024-01-25T12:16:08;9.34;71.71
72380;SHT30;60354;47.798;12.472;2024-01-25T12:18:34;9.38;71.52
72380;SHT30;60354;47.798;12.472;2024-01-25T12:21:04;9.45;71.61
72380;SHT30;60354;47.798;12.472;2024-01-25T12:23:37;9.48;69.48
72380;SHT30;60354;47.798;12.472;2024-01-25T12:26:10;9.41;68.29
72380;SHT30;60354;47.798;12.472;2024-01-25T12:28:37;9.39;69.57
72380;SHT30;60354;47.798;12.472;2024-01-25T12:31:04;9.36;70.41
72380;SHT30;60354;47.798;12.472;2024-01-25T12:33:31;9.21;69.58
72380;SHT30;60354;47.798;12.472;2024-01-25T12:35:57;9.28;70.18
72380;SHT30;60354;47.798;12.472;2024-01-25T12:38:24;9.44;68.57
72380;SHT30;60354;47.798;12.472;2024-01-25T12:40:51;9.49;70.11
72380;SHT30;60354;47.798;12.472;2024-01-25T12:43:17;9.46;69.42
72380;SHT30;60354;47.798;12.472;2024-01-25T12:45:43;9.48;68.72
72380;SHT30;60354;47.798;12.472;2024-01-25T12:48:10;9.51;68.44
72380;SHT30;60354;47.798;12.472;2024-01-25T12:50:38;9.55;68.23
72380;SHT30;60354;47.798;12.472;2024-01-25T12:53:05;9.55;67.82
72380;SHT30;60354;47.798;12.472;2024-01-25T12:55:31;9.61;68.23
72380;SHT30;60354;47.798;12.472;2024-01-25T12:57:58;9.56;68.58
72380;SHT30;60354;47.798;12.472;2024-01-25T13:00:23;9.54;68.23
72380;SHT30;60354;47.798;12.472;2024-01-25T13:02:49;9.56;67.37
72380;SHT30;60354;47.798;12.472;2024-01-25T13:05:16;9.68;67.91
72380;SHT30;60354;47.798;12.472;2024-01-25T13:07:41;9.75;67.31
72380;SHT30;60354;47.798;12.472;2024-01-25T13:10:08;9.79;68.33
72380;SHT30;60354;47.798;12.472;2024-01-25T13:12:34;9.87;67.60
72380;SHT30;60354;47.798;12.472;2024-01-25T13:14:59;9.95;66.22
72380;SHT30;60354;47.798;12.472;2024-01-25T13:17:25;9.99;65.75
72380;SHT30;60354;47.798;12.472;2024-01-25T13:19:50;9.95;66.25
72380;SHT30;60354;47.798;12.472;2024-01-25T13:22:16;9.95;67.22
72380;SHT30;60354;47.798;12.472;2024-01-25T13:24:50;9.90;64.70
72380;SHT30;60354;47.798;12.472;2024-01-25T13:27:15;9.86;65.46
72380;SHT30;60354;47.798;12.472;2024-01-25T13:29:41;9.86;64.75
72380;SHT30;60354;47.798;12.472;2024-01-25T13:32:07;9.76;64.28
72380;SHT30;60354;47.798;12.472;2024-01-25T13:34:33;9.69;65.66
72380;SHT30;60354;47.798;12.472;2024-01-25T13:36:59;9.69;66.70
72380;SHT30;60354;47.798;12.472;2024-01-25T13:39:24;9.66;66.78
72380;SHT30;60354;47.798;12.472;2024-01-25T13:41:51;9.68;67.78
72380;SHT30;60354;47.798;12.472;2024-01-25T13:44:16;9.63;67.74
72380;SHT30;60354;47.798;12.472;2024-01-25T13:46:42;9.66;66.94
72380;SHT30;60354;47.798;12.472;2024-01-25T13:49:07;9.65;67.01
72380;SHT30;60354;47.798;12.472;2024-01-25T13:51:33;9.59;67.29
72380;SHT30;60354;47.798;12.472;2024-01-25T13:53:58;9.61;67.38
72380;SHT30;60354;47.798;12.472;2024-01-25T13:56:24;9.61;66.25
72380;SHT30;60354;47.798;12.472;2024-01-25T13:58:49;9.62;66.37
72380;SHT30;60354;47.798;12.472;2024-01-25T14:01:14;9.62;67.42
72380;SHT30;60354;47.798;12.472;2024-01-25T14:03:40;9.56;67.26
72380;SHT30;60354;47.798;12.472;2024-01-25T14:06:06;9.48;67.43
72380;SHT30;60354;47.798;12.472;2024-01-25T14:08:35;9.49;66.84
72380;SHT30;60354;47.798;12.472;2024-01-25T14:11:01;9.54;67.43
72380;SHT30;60354;47.798;12.472;2024-01-25T14:13:27;9.62;69.59
72380;SHT30;60354;47.798;12.472;2024-01-25T14:15:52;9.63;67.57
72380;SHT30;60354;47.798;12.472;2024-01-25T14:18:18;9.63;68.11
72380;SHT30;60354;47.798;12.472;2024-01-25T14:20:43;9.59;67.72
72380;SHT30;60354;47.798;12.472;2024-01-25T14:23:09;9.62;67.81
72380;SHT30;60354;47.798;12.472;2024-01-25T14:25:34;9.56;67.86
72380;SHT30;60354;47.798;12.472;2024-01-25T14:27:59;9.54;67.66
72380;SHT30;60354;47.798;12.472;2024-01-25T14:30:25;9.59;67.68
72380;SHT30;60354;47.798;12.472;2024-01-25T14:32:50;9.51;67.55
72380;SHT30;60354;47.798;12.472;2024-01-25T14:35:16;9.51;68.37
72380;SHT30;60354;47.798;12.472;2024-01-25T14:37:41;9.48;68.75
72380;SHT30;60354;47.798;12.472;2024-01-25T14:40:07;9.49;68.41
72380;SHT30;60354;47.798;12.472;2024-01-25T14:42:33;9.52;68.93
72380;SHT30;60354;47.798;12.472;2024-01-25T14:44:58;9.48;69.49
72380;SHT30;60354;47.798;12.472;2024-01-25T14:47:24;9.52;69.88
72380;SHT30;60354;47.798;12.472;2024-01-25T14:49:49;9.46;68.77
72380;SHT30;60354;47.798;12.472;2024-01-25T14:52:17;9.30;69.50
72380;SHT30;60354;47.798;12.472;2024-01-25T14:54:44;9.55;73.19
72380;SHT30;60354;47.798;12.472;2024-01-25T14:57:09;9.82;73.13
72380;SHT30;60354;47.798;12.472;2024-01-25T14:59:35;9.93;71.51
72380;SHT30;60354;47.798;12.472;2024-01-25T15:02:00;10.13;70.65
72380;SHT30;60354;47.798;12.472;2024-01-25T15:04:26;10.23;70.42
72380;SHT30;60354;47.798;12.472;2024-01-25T15:06:55;10.13;69.72
72380;SHT30;60354;47.798;12.472;2024-01-25T15:09:21;9.71;67.46
72380;SHT30;60354;47.798;12.472;2024-01-25T15:11:46;9.46;68.88
72380;SHT30;60354;47.798;12.472;2024-01-25T15:14:13;9.28;70.04
72380;SHT30;60354;47.798;12.472;2024-01-25T15:16:40;9.25;70.33
72380;SHT30;60354;47.798;12.472;2024-01-25T15:19:06;9.15;70.97
72380;SHT30;60354;47.798;12.472;2024-01-25T15:21:31;9.03;71.20
72380;SHT30;60354;47.798;12.472;2024-01-25T15:23:57;9.03;71.44